sensor_id;sensor_type;location;lat;lon;timestamp;temperature;humidity
40630;DHT22;26329;40.388;-3.710;2022-08-19T00:05:01;22.70;41.60
40630;DHT22;26329;40.388;-3.710;2022-08-19T00:15:10;22.60;41.90
40630;DHT22;26329;40.388;-3.710;2022-08-19T00:25:19;22.50;42.00
40630;DHT22;26329;40.388;-3.710;2022-08-19T00:35:23;22.40;42.30
40630;DHT22;26329;40.388;-3.710;2022-08-19T00:45:34;22.40;42.50
40630;DHT22;26329;40.388;-3.710;2022-08-19T00:55:37;22.30;42.60
40630;DHT22;26329;40.388;-3.710;2022-08-19T01:05:42;22.20;42.80
40630;DHT22;26329;40.388;-3.710;2022-08-19T01:15:55;22.00;43.20
40630;DHT22;26329;40.388;-3.710;2022-08-19T01:25:59;22.00;43.20
40630;DHT22;26329;40.388;-3.710;2022-08-19T01:36:13;21.90;43.50
40630;DHT22;26329;40.388;-3.710;2022-08-19T01:46:35;21.80;43.70
40630;DHT22;26329;40.388;-3.710;2022-08-19T01:57:08;21.60;44.20
40630;DHT22;26329;40.388;-3.710;2022-08-19T02:07:29;21.60;44.40
40630;DHT22;26329;40.388;-3.710;2022-08-19T02:17:39;21.40;44.70
40630;DHT22;26329;40.388;-3.710;2022-08-19T02:27:59;21.40;45.00
40630;DHT22;26329;40.388;-3.710;2022-08-19T02:38:13;21.30;45.20
40630;DHT22;26329;40.388;-3.710;2022-08-19T02:48:40;21.10;45.60
40630;DHT22;26329;40.388;-3.710;2022-08-19T02:58:52;21.00;46.00
40630;DHT22;26329;40.388;-3.710;2022-08-19T03:09:14;21.00;46.20
40630;DHT22;26329;40.388;-3.710;2022-08-19T03:19:35;20.80;46.60
40630;DHT22;26329;40.388;-3.710;2022-08-19T03:29:51;20.80;46.80
40630;DHT22;26329;40.388;-3.710;2022-08-19T03:40:05;20.60;47.20
40630;DHT22;26329;40.388;-3.710;2022-08-19T03:50:12;20.60;47.20
40630;DHT22;26329;40.388;-3.710;2022-08-19T04:00:17;20.60;47.30
40630;DHT22;26329;40.388;-3.710;2022-08-19T04:10:22;20.60;47.10
40630;DHT22;26329;40.388;-3.710;2022-08-19T04:20:24;20.30;47.50
40630;DHT22;26329;40.388;-3.710;2022-08-19T04:30:26;20.20;47.80
40630;DHT22;26329;40.388;-3.710;2022-08-19T04:40:27;20.20;48.00
40630;DHT22;26329;40.388;-3.710;2022-08-19T04:50:47;20.00;48.20
40630;DHT22;26329;40.388;-3.710;2022-08-19T05:00:49;19.90;48.80
40630;DHT22;26329;40.388;-3.710;2022-08-19T05:10:51;19.90;48.70
40630;DHT22;26329;40.388;-3.710;2022-08-19T05:20:54;19.70;49.10
40630;DHT22;26329;40.388;-3.710;2022-08-19T05:31:14;19.70;49.30
40630;DHT22;26329;40.388;-3.710;2022-08-19T05:41:15;19.50;49.60
40630;DHT22;26329;40.388;-3.710;2022-08-19T05:51:18;19.50;49.50
40630;DHT22;26329;40.388;-3.710;2022-08-19T06:01:20;19.50;49.50
40630;DHT22;26329;40.388;-3.710;2022-08-19T06:11:31;19.50;49.80
40630;DHT22;26329;40.388;-3.710;2022-08-19T06:21:37;19.40;49.80
40630;DHT22;26329;40.388;-3.710;2022-08-19T06:31:45;19.50;49.60
40630;DHT22;26329;40.388;-3.710;2022-08-19T06:41:49;19.70;49.30
40630;DHT22;26329;40.388;-3.710;2022-08-19T06:51:52;19.80;49.80
40630;DHT22;26329;40.388;-3.710;2022-08-19T07:01:56;20.00;48.80
40630;DHT22;26329;40.388;-3.710;2022-08-19T07:11:57;20.20;48.20
40630;DHT22;26329;40.388;-3.710;2022-08-19T07:22:02;20.50;47.50
40630;DHT22;26329;40.388;-3.710;2022-08-19T07:32:06;21.20;45.90
40630;DHT22;26329;40.388;-3.710;2022-08-19T07:42:10;21.80;44.20
40630;DHT22;26329;40.388;-3.710;2022-08-19T07:52:12;22.40;42.60
40630;DHT22;26329;40.388;-3.710;2022-08-19T08:02:14;23.10;41.40
40630;DHT22;26329;40.388;-3.710;2022-08-19T08:12:20;23.20;41.00
40630;DHT22;26329;40.388;-3.710;2022-08-19T08:22:25;23.20;41.20
40630;DHT22;26329;40.388;-3.710;2022-08-19T08:32:46;23.40;40.40
40630;DHT22;26329;40.388;-3.710;2022-08-19T08:43:01;23.70;39.70
40630;DHT22;26329;40.388;-3.710;2022-08-19T08:53:08;23.90;39.00
40630;DHT22;26329;40.388;-3.710;2022-08-19T09:03:24;24.20;38.70
40630;DHT22;26329;40.388;-3.710;2022-08-19T09:23:41;24.50;37.50
40630;DHT22;26329;40.388;-3.710;2022-08-19T09:33:44;24.90;36.80
40630;DHT22;26329;40.388;-3.710;2022-08-19T09:43:48;25.50;36.00
40630;DHT22;26329;40.388;-3.710;2022-08-19T09:53:52;25.70;35.40
40630;DHT22;26329;40.388;-3.710;2022-08-19T10:04:00;25.70;35.20
40630;DHT22;26329;40.388;-3.710;2022-08-19T10:24:06;25.80;34.00
40630;DHT22;26329;40.388;-3.710;2022-08-19T10:34:08;25.90;34.70
40630;DHT22;26329;40.388;-3.710;2022-08-19T10:44:11;26.40;34.70
40630;DHT22;26329;40.388;-3.710;2022-08-19T10:54:13;26.60;32.70
40630;DHT22;26329;40.388;-3.710;2022-08-19T11:04:15;26.70;32.80
40630;DHT22;26329;40.388;-3.710;2022-08-19T11:14:19;26.70;31.80
40630;DHT22;26329;40.388;-3.710;2022-08-19T11:44:29;27.30;30.10
40630;DHT22;26329;40.388;-3.710;2022-08-19T11:54:31;27.20;29.00
40630;DHT22;26329;40.388;-3.710;2022-08-19T12:04:33;27.20;28.80
40630;DHT22;26329;40.388;-3.710;2022-08-19T12:14:34;27.40;27.30
